Time;durP1;ratioP1;P1;durP2;ratioP2;P2;SDS_P1;SDS_P2;PMS_P1;PMS_P2;Temp;Humidity;BMP_temperature;BMP_pressure;BME280_temperature;BME280_humidity;BME280_pressure;Samples;Min_cycle;Max_cycle;Signal;HPM_P1;HPM_P2
2022/07/30 00:00:57;;;;;;;5.03;3.60;;;;;;;25.13;44.17;101805.34;5057737;28;21001;-67
2022/07/30 00:03:22;;;;;;;3.83;3.13;;;;;;;25.07;44.13;101800.81;5037001;28;20063;-67
2022/07/30 00:05:48;;;;;;;4.72;3.78;;;;;;;25.13;44.08;101805.34;5056981;28;20048;-67
2022/07/30 00:08:13;;;;;;;4.28;3.25;;;;;;;25.09;44.13;101804.09;5043170;28;20048;-67
2022/07/30 00:10:39;;;;;;;3.90;3.38;;;;;;;25.03;44.17;101797.69;5064585;28;20043;-67
2022/07/30 00:13:05;;;;;;;4.55;3.63;;;;;;;25.06;44.21;101794.66;5054670;28;20028;-67
2022/07/30 00:15:31;;;;;;;4.03;3.25;;;;;;;25.05;44.18;101789.50;5069992;28;20574;-67
2022/07/30 00:17:56;;;;;;;5.18;3.95;;;;;;;25.07;44.28;101793.63;5068589;28;20044;-67
2022/07/30 00:20:22;;;;;;;7.18;3.63;;;;;;;25.00;44.05;101795.41;5061322;28;20040;-67
2022/07/30 00:22:47;;;;;;;4.25;3.47;;;;;;;24.93;44.50;101791.81;5060339;28;20220;-67
2022/07/30 00:25:13;;;;;;;5.43;3.72;;;;;;;24.99;44.28;101794.59;5067846;28;20036;-67
2022/07/30 00:27:38;;;;;;;5.05;3.47;;;;;;;24.93;44.15;101789.97;5068050;28;20597;-67
2022/07/30 00:30:05;;;;;;;4.80;3.67;;;;;;;24.94;44.42;101794.28;5052698;28;20506;-67
2022/07/30 00:32:30;;;;;;;4.68;3.60;;;;;;;24.91;44.66;101791.19;5058967;28;20074;-67
2022/07/30 00:34:56;;;;;;;4.22;3.50;;;;;;;24.90;44.62;101793.03;5063090;28;20065;-67
2022/07/30 00:37:22;;;;;;;4.97;3.80;;;;;;;24.88;44.47;101796.91;5065301;28;20044;-67
2022/07/30 00:39:47;;;;;;;4.47;3.50;;;;;;;24.92;44.31;101790.16;5064670;28;20051;-67
2022/07/30 00:42:13;;;;;;;4.40;3.50;;;;;;;24.87;44.57;101795.25;5064668;28;20044;-67
2022/07/30 00:44:40;;;;;;;4.63;3.50;;;;;;;24.92;44.24;101793.66;5051419;28;20036;-67
2022/07/30 00:47:05;;;;;;;6.10;3.60;;;;;;;24.93;44.25;101795.31;5050106;28;20665;-67
2022/07/30 00:49:31;;;;;;;6.78;3.90;;;;;;;24.90;44.41;101787.69;5072547;28;20044;-67
2022/07/30 00:51:56;;;;;;;6.50;4.00;;;;;;;24.87;44.48;101795.25;5053678;28;20051;-67
2022/07/30 00:54:22;;;;;;;4.35;3.40;;;;;;;24.87;44.32;101793.41;5064257;28;20036;-67
2022/07/30 00:56:48;;;;;;;3.97;3.42;;;;;;;24.85;44.44;101791.97;5063230;28;20046;-67
2022/07/30 00:59:13;;;;;;;4.35;3.70;;;;;;;24.82;44.55;101795.00;5068329;28;20048;-67
2022/07/30 01:01:39;;;;;;;4.43;3.47;;;;;;;24.84;44.42;101795.63;5063655;28;20078;-67
2022/07/30 01:04:10;;;;;;;3.65;3.20;;;;;;;24.76;44.54;101782.44;5062544;28;20051;-67
2022/07/30 01:06:37;;;;;;;5.80;3.58;;;;;;;24.81;44.56;101788.03;5043797;28;20304;-67
2022/07/30 01:09:02;;;;;;;4.65;3.80;;;;;;;24.79;44.70;101782.91;5069532;28;20059;-67
2022/07/30 01:11:35;;;;;;;4.32;3.60;;;;;;;24.84;44.45;101785.81;5070892;28;20594;-67
2022/07/30 01:14:00;;;;;;;5.93;3.80;;;;;;;24.75;44.79;101786.94;5064135;28;20036;-67
2022/07/30 01:16:27;;;;;;;4.65;3.40;;;;;;;24.81;44.58;101790.69;5066858;28;20367;-67
2022/07/30 01:21:45;;;;;;;6.40;3.70;;;;;;;24.71;44.77;101778.50;5052204;28;20029;-67
2022/07/30 01:24:17;;;;;;;5.07;4.03;;;;;;;24.76;44.58;101769.09;5064339;28;20051;-67
2022/07/30 01:26:43;;;;;;;5.57;3.70;;;;;;;24.75;44.47;101764.81;5067146;28;20704;-67
2022/07/30 01:29:12;;;;;;;4.72;3.55;;;;;;;24.79;44.56;101772.25;5067116;28;20036;-67
2022/07/30 01:31:38;;;;;;;6.03;4.07;;;;;;;24.76;44.63;101769.94;5075129;28;20692;-67
2022/07/30 01:34:05;;;;;;;4.65;3.60;;;;;;;24.78;44.74;101757.28;5041040;28;20045;-67
2022/07/30 01:36:31;;;;;;;4.32;3.47;;;;;;;24.83;44.54;101764.69;5067272;28;20754;-67
2022/07/30 01:38:58;;;;;;;4.63;3.63;;;;;;;24.85;44.38;101762.66;5057868;28;20044;-67
2022/07/30 01:41:24;;;;;;;5.88;3.88;;;;;;;24.75;44.59;101762.13;5050784;28;20024;-67
2022/07/30 01:43:52;;;;;;;4.80;3.63;;;;;;;24.75;44.73;101762.13;5052155;28;20048;-67
2022/07/30 01:46:18;;;;;;;8.48;4.00;;;;;;;24.65;44.91;101771.28;5076597;28;20127;-67
2022/07/30 01:48:47;;;;;;;4.53;3.38;;;;;;;24.68;45.05;101770.06;5047972;28;20127;-67
2022/07/30 01:51:17;;;;;;;4.30;3.40;;;;;;;24.66;44.93;101770.25;5062707;28;20324;-67
2022/07/30 01:53:48;;;;;;;4.38;3.67;;;;;;;24.74;44.57;101758.66;5046988;28;20032;-67
2022/07/30 01:56:20;;;;;;;4.53;3.30;;;;;;;24.68;44.66;101765.56;5045024;28;20044;-67
2022/07/30 01:58:49;;;;;;;4.38;3.47;;;;;;;24.63;45.01;101762.66;5045395;28;20119;-67
2022/07/30 02:01:23;;;;;;;3.75;3.30;;;;;;;24.64;44.73;101763.47;5048148;28;20111;-67
2022/07/30 02:03:52;;;;;;;3.85;3.45;;;;;;;24.68;44.53;101764.75;5044241;28;20438;-67
2022/07/30 02:06:25;;;;;;;4.00;3.40;;;;;;;24.64;44.71;101760.81;5054583;28;20040;-66
2022/07/30 02:08:58;;;;;;;4.65;3.35;;;;;;;24.64;44.77;101758.97;5070983;28;20028;-66
2022/07/30 02:14:19;;;;;;;4.03;3.63;;;;;;;24.62;44.84;101753.03;5049423;28;20060;-66
2022/07/30 02:16:51;;;;;;;4.90;3.60;;;;;;;24.68;44.76;101757.56;5051208;28;20436;-66
2022/07/30 02:19:22;;;;;;;4.25;3.38;;;;;;;24.62;44.92;101753.03;5051254;28;20062;-66
2022/07/30 02:21:53;;;;;;;4.47;3.63;;;;;;;24.67;44.71;101755.94;5075488;28;20039;-67
2022/07/30 02:24:24;;;;;;;4.85;3.65;;;;;;;24.64;44.66;101747.50;5054460;28;20785;-66
2022/07/30 02:26:55;;;;;;;5.38;3.63;;;;;;;24.53;44.91;101748.00;5050288;28;20059;-66
2022/07/30 02:29:22;;;;;;;3.75;3.38;;;;;;;24.62;44.77;101746.88;5050865;28;21636;-66
2022/07/30 02:31:50;;;;;;;4.78;3.33;;;;;;;24.65;44.76;101743.81;5031104;28;20115;-66
2022/07/30 02:34:20;;;;;;;4.07;3.67;;;;;;;24.57;44.82;101749.25;5071247;28;20813;-66
2022/07/30 02:36:46;;;;;;;4.15;3.58;;;;;;;24.62;44.71;101744.22;5038315;28;20063;-66
2022/07/30 02:39:15;;;;;;;4.03;3.45;;;;;;;24.60;44.74;101748.91;5052799;28;20047;-66
2022/07/30 02:41:42;;;;;;;6.03;3.70;;;;;;;24.61;44.73;101743.38;5046025;28;20127;-66
2022/07/30 02:44:10;;;;;;;4.18;3.58;;;;;;;24.56;45.17;101745.75;5050582;28;20037;-66
2022/07/30 02:46:38;;;;;;;4.32;3.60;;;;;;;24.63;44.75;101744.00;5075901;28;20063;-66
2022/07/30 02:49:25;;;;;;;4.57;3.63;;;;;;;24.49;44.93;101742.22;5071648;28;20039;-66
2022/07/30 02:51:52;;;;;;;4.57;3.42;;;;;;;24.52;44.93;101751.66;5043857;28;20551;-66
2022/07/30 02:54:19;;;;;;;4.85;3.80;;;;;;;24.55;44.96;101748.63;5046698;28;21013;-66
2022/07/30 02:56:48;;;;;;;4.43;3.83;;;;;;;24.47;45.09;101759.41;5044256;28;20540;-66
2022/07/30 02:59:16;;;;;;;4.45;3.58;;;;;;;24.55;44.74;101756.59;5040792;28;20144;-66
2022/07/30 03:01:43;;;;;;;4.57;3.88;;;;;;;24.51;45.03;101750.00;5045103;28;20077;-66
2022/07/30 03:04:11;;;;;;;4.05;3.42;;;;;;;24.46;45.06;101749.75;5050001;28;20181;-66
2022/07/30 03:06:38;;;;;;;5.00;3.58;;;;;;;24.52;45.05;101744.50;5048893;28;20036;-66
2022/07/30 03:09:04;;;;;;;3.85;3.40;;;;;;;24.54;44.83;101746.97;5067610;28;20041;-66
2022/07/30 03:11:30;;;;;;;4.03;3.35;;;;;;;24.51;44.79;101748.19;5049926;28;20446;-66
2022/07/30 03:13:56;;;;;;;4.93;3.67;;;;;;;24.46;44.91;101749.75;5070202;28;20051;-66
2022/07/30 03:16:25;;;;;;;4.88;3.30;;;;;;;24.54;44.88;101753.13;5064136;28;20031;-66
2022/07/30 03:18:53;;;;;;;4.43;3.30;;;;;;;24.49;44.88;101752.88;5058959;28;20060;-66
2022/07/30 03:21:22;;;;;;;4.55;3.78;;;;;;;24.38;45.20;101758.66;5049053;28;20033;-66
2022/07/30 03:23:49;;;;;;;3.58;3.28;;;;;;;24.48;45.09;101761.88;5069360;28;20736;-66
2022/07/30 03:26:18;;;;;;;4.05;3.42;;;;;;;24.43;45.25;101760.78;5047518;28;20047;-66
2022/07/30 03:28:45;;;;;;;3.97;3.42;;;;;;;24.43;45.03;101760.78;5051291;28;20089;-66
2022/07/30 03:31:13;;;;;;;4.18;3.45;;;;;;;24.45;44.92;101756.09;5053021;28;20529;-66
2022/07/30 03:33:39;;;;;;;5.18;3.90;;;;;;;24.44;44.99;101757.94;5043615;28;20037;-66
2022/07/30 03:36:07;;;;;;;6.45;3.67;;;;;;;24.45;45.03;101756.94;5063552;28;20043;-66
2022/07/30 03:38:35;;;;;;;5.90;3.75;;;;;;;24.43;45.05;101750.16;5049561;28;20027;-66
2022/07/30 03:41:02;;;;;;;4.10;3.70;;;;;;;24.38;45.25;101756.00;5047364;28;20029;-66
2022/07/30 03:43:28;;;;;;;4.15;3.75;;;;;;;24.45;45.09;101758.78;5049109;28;20032;-66
2022/07/30 03:45:55;;;;;;;4.43;3.28;;;;;;;24.42;44.93;101752.00;5050342;28;20040;-66
2022/07/30 03:48:24;;;;;;;4.43;3.60;;;;;;;24.43;44.93;101756.28;5047529;28;20064;-66
2022/07/30 03:50:53;;;;;;;4.35;3.50;;;;;;;24.46;44.84;101755.09;5032074;28;20037;-66
2022/07/30 03:53:19;;;;;;;4.05;3.42;;;;;;;24.42;44.92;101757.31;5061951;28;20488;-66
2022/07/30 03:56:03;;;;;;;5.18;3.92;;;;;;;24.37;45.22;101757.03;5065449;28;20191;-66
2022/07/30 03:59:08;;;;;;;4.00;3.45;;;;;;;24.39;45.03;101762.97;4968275;28;20046;-66
2022/07/30 04:01:37;;;;;;;4.55;4.00;;;;;;;24.32;45.17;101756.78;4962046;28;20045;-66
2022/07/30 04:04:13;;;;;;;5.13;3.80;;;;;;;24.34;45.09;101754.75;5031395;28;20044;-66
2022/07/30 04:06:39;;;;;;;4.18;3.78;;;;;;;24.33;45.26;101763.75;5042425;28;20036;-66
2022/07/30 04:09:07;;;;;;;4.63;4.05;;;;;;;24.36;45.16;101758.88;5041271;28;20055;-66
2022/07/30 04:11:33;;;;;;;4.18;3.78;;;;;;;24.39;44.92;101762.97;5049495;28;20047;-66
2022/07/30 04:14:03;;;;;;;4.60;3.55;;;;;;;24.40;44.93;101762.78;5048935;28;20048;-66
2022/07/30 04:16:53;;;;;;;5.35;3.95;;;;;;;24.40;45.08;101768.13;5046664;28;20063;-66
2022/07/30 04:19:43;;;;;;;4.43;3.60;;;;;;;24.38;45.00;101767.47;5055645;28;20127;-66
2022/07/30 04:22:11;;;;;;;3.85;3.25;;;;;;;24.33;45.16;101766.41;5055381;28;20494;-66
2022/07/30 04:24:39;;;;;;;5.50;3.75;;;;;;;24.30;45.47;101767.59;5053463;28;20791;-66
2022/07/30 04:27:05;;;;;;;4.60;3.72;;;;;;;24.36;44.93;101760.69;5051904;28;20285;-66
2022/07/30 04:29:31;;;;;;;4.35;3.78;;;;;;;24.35;45.03;101773.19;5054779;28;21023;-66
2022/07/30 04:31:57;;;;;;;6.18;4.22;;;;;;;24.33;45.08;101769.88;5069907;28;20048;-66
2022/07/30 04:34:50;;;;;;;5.43;3.83;;;;;;;24.32;45.06;101770.91;5063387;28;20093;-66
2022/07/30 04:37:24;;;;;;;4.30;3.90;;;;;;;24.36;45.03;101776.66;5052267;28;20044;-66
2022/07/30 04:39:53;;;;;;;4.13;3.55;;;;;;;24.32;45.07;101778.06;5056651;28;20055;-66
2022/07/30 04:42:20;;;;;;;5.10;3.83;;;;;;;24.32;44.99;101778.06;5077976;28;20033;-66
2022/07/30 04:44:56;;;;;;;4.63;3.50;;;;;;;24.39;44.99;101784.28;5051416;28;20032;-66
2022/07/30 04:47:27;;;;;;;4.07;3.30;;;;;;;24.35;44.72;101783.84;5073513;28;20082;-65
2022/07/30 04:50:27;;;;;;;4.68;3.53;;;;;;;24.25;45.04;101782.47;5020664;28;20593;-66
2022/07/30 04:52:55;;;;;;;4.70;3.33;;;;;;;24.36;44.96;101774.00;5049763;28;20081;-66
2022/07/30 04:55:26;;;;;;;4.78;3.80;;;;;;;24.34;44.89;101782.19;5045552;28;20028;-66
2022/07/30 04:57:52;;;;;;;3.88;3.30;;;;;;;24.35;44.84;101788.34;5063878;28;20418;-66
2022/07/30 05:00:18;;;;;;;4.40;3.42;;;;;;;24.32;44.92;101781.56;5075216;28;20790;-66
2022/07/30 05:02:46;;;;;;;4.22;3.40;;;;;;;24.26;45.10;101782.28;5047628;28;20055;-66
2022/07/30 05:05:13;;;;;;;6.45;4.32;;;;;;;24.33;44.96;101787.69;5066326;28;20044;-66
2022/07/30 05:07:40;;;;;;;4.78;3.60;;;;;;;24.34;44.97;101784.84;5075410;28;20037;-66
2022/07/30 05:10:09;;;;;;;4.40;3.70;;;;;;;24.30;45.17;101777.44;5055858;28;20506;-66
2022/07/30 05:12:36;;;;;;;4.22;3.63;;;;;;;24.24;45.21;101789.63;5055161;28;20940;-66
2022/07/30 05:15:05;;;;;;;5.45;3.83;;;;;;;24.24;45.03;101796.78;5070727;28;20035;-66
2022/07/30 05:17:31;;;;;;;4.73;3.50;;;;;;;24.26;45.13;101794.75;5065268;28;20123;-66
2022/07/30 05:19:58;;;;;;;4.28;3.72;;;;;;;24.24;45.03;101789.63;5050983;28;20032;-66
2022/07/30 05:22:26;;;;;;;4.68;3.65;;;;;;;24.30;45.05;101790.75;5046566;28;20031;-66
2022/07/30 05:24:52;;;;;;;3.83;3.35;;;;;;;24.29;45.08;101797.91;5076235;28;20043;-66
2022/07/30 05:27:19;;;;;;;5.03;3.88;;;;;;;24.29;44.90;101807.72;5049912;28;20446;-66
2022/07/30 05:29:45;;;;;;;5.10;3.90;;;;;;;24.18;45.19;101794.84;5070964;28;20036;-66
2022/07/30 05:32:15;;;;;;;5.53;3.72;;;;;;;24.28;44.99;101793.56;5060054;28;20837;-66
2022/07/30 05:34:41;;;;;;;3.75;3.20;;;;;;;24.29;44.97;101791.75;5047749;28;20041;-66
2022/07/30 05:37:07;;;;;;;4.57;3.70;;;;;;;24.29;44.99;101789.09;5046696;28;20090;-66
2022/07/30 05:39:32;;;;;;;3.90;3.30;;;;;;;24.32;45.02;101791.38;5051821;28;20040;-66
2022/07/30 05:42:30;;;;;;;4.55;3.78;;;;;;;24.29;44.93;101792.56;5065805;28;20040;-66
2022/07/30 05:44:57;;;;;;;6.60;3.95;;;;;;;24.29;45.25;101794.41;5073356;28;20051;-66
2022/07/30 05:47:22;;;;;;;4.57;3.50;;;;;;;24.32;45.03;101794.03;5046804;28;20032;-66
2022/07/30 05:49:48;;;;;;;4.57;3.70;;;;;;;24.31;44.99;101795.88;5055482;28;20505;-66
2022/07/30 05:52:14;;;;;;;4.63;4.00;;;;;;;24.27;45.09;101789.25;5048730;28;20056;-66
2022/07/30 05:54:41;;;;;;;5.80;3.50;;;;;;;24.27;45.13;101796.41;5033364;28;20750;-66
2022/07/30 05:57:25;;;;;;;5.13;3.50;;;;;;;24.28;44.91;101788.22;5053671;28;20063;-67
2022/07/30 05:59:51;;;;;;;4.25;3.50;;;;;;;24.30;44.98;101790.75;5052114;28;20060;-66
2022/07/30 06:02:21;;;;;;;4.40;3.47;;;;;;;24.29;45.21;101797.06;5056666;28;20055;-66
2022/07/30 06:04:56;;;;;;;4.68;3.28;;;;;;;24.31;45.00;101803.84;5056178;28;20528;-66
2022/07/30 06:07:22;;;;;;;4.43;3.20;;;;;;;24.34;45.10;101800.00;5061256;28;20561;-66
2022/07/30 06:09:49;;;;;;;4.85;3.30;;;;;;;24.32;44.90;101805.50;5054003;28;20040;-66
2022/07/30 06:12:15;;;;;;;3.58;3.22;;;;;;;24.34;45.03;101803.47;5057979;28;20043;-67
2022/07/30 06:14:42;;;;;;;4.57;3.65;;;;;;;24.37;44.96;101802.28;5050522;28;20158;-67
2022/07/30 06:17:12;;;;;;;4.95;3.80;;;;;;;24.38;45.29;101810.06;5048181;28;20048;-67
2022/07/30 06:20:01;;;;;;;4.80;3.92;;;;;;;24.37;44.96;101808.44;5076538;28;20485;-67
2022/07/30 06:22:30;;;;;;;4.47;3.45;;;;;;;24.39;45.02;101801.06;5068488;28;20497;-67
2022/07/30 06:25:01;;;;;;;4.90;3.42;;;;;;;24.39;45.09;101808.25;5034735;28;20043;-67
2022/07/30 06:27:27;;;;;;;4.28;3.30;;;;;;;24.36;45.12;101816.59;5050651;28;20040;-67
2022/07/30 06:29:52;;;;;;;5.35;3.35;;;;;;;24.41;45.06;101812.38;5052521;28;20694;-67
2022/07/30 06:32:19;;;;;;;4.18;3.70;;;;;;;24.39;45.14;101813.56;5042502;28;20406;-67
2022/07/30 06:34:44;;;;;;;4.47;3.40;;;;;;;24.35;45.31;101828.25;5037598;28;20037;-67
2022/07/30 06:37:10;;;;;;;5.47;3.97;;;;;;;24.40;45.22;101817.88;5053623;28;20075;-67
2022/07/30 06:39:35;;;;;;;3.67;3.30;;;;;;;24.34;45.32;101824.78;5039862;28;20437;-67
2022/07/30 06:42:27;;;;;;;4.32;3.63;;;;;;;24.41;45.31;101832.84;5037933;28;20048;-66
2022/07/30 06:45:19;;;;;;;3.95;3.40;;;;;;;24.47;45.39;101837.44;5056977;28;20048;-67
2022/07/30 06:48:03;;;;;;;4.80;3.40;;;;;;;24.41;45.43;101833.66;5064751;28;20549;-67
2022/07/30 06:50:30;;;;;;;4.95;3.70;;;;;;;24.49;45.24;101840.75;5045524;28;20075;-67
2022/07/30 06:52:56;;;;;;;4.28;3.70;;;;;;;24.49;45.26;101839.91;5060393;28;20036;-67
2022/07/30 06:55:24;;;;;;;3.70;3.13;;;;;;;24.50;45.28;101841.56;5053587;28;20040;-67
2022/07/30 06:57:51;;;;;;;5.65;3.40;;;;;;;24.52;45.21;101832.38;5052466;28;20515;-67
2022/07/30 07:00:37;;;;;;;7.45;3.78;;;;;;;24.55;45.03;101829.31;5059584;28;20072;-66
2022/07/30 07:03:08;;;;;;;3.97;3.28;;;;;;;24.57;45.05;101837.13;5045836;28;20039;-66
2022/07/30 07:05:35;;;;;;;4.05;3.28;;;;;;;24.56;45.20;101832.81;5046405;28;20032;-66
2022/07/30 07:08:01;;;;;;;4.35;3.40;;;;;;;24.58;45.38;101836.13;5043816;28;20078;-66
2022/07/30 07:10:32;;;;;;;4.32;3.45;;;;;;;24.61;45.52;101827.78;5049295;28;20043;-66
2022/07/30 07:13:20;;;;;;;4.05;3.30;;;;;;;24.63;45.37;101828.41;5053871;28;20056;-66
2022/07/30 07:15:46;;;;;;;4.20;3.30;;;;;;;24.71;45.31;101828.28;5038316;28;20036;-66
2022/07/30 07:18:17;;;;;;;5.43;3.50;;;;;;;24.68;45.89;101831.31;5045309;28;20039;-66
2022/07/30 07:20:49;;;;;;;4.95;3.58;;;;;;;24.68;45.81;101834.00;5067046;28;20919;-66
2022/07/30 07:23:15;;;;;;;4.72;3.60;;;;;;;24.72;45.76;101824.59;5047238;28;20416;-66
2022/07/30 07:25:41;;;;;;;4.63;2.88;;;;;;;24.81;45.67;101831.47;5046231;28;20573;-66
2022/07/30 07:28:08;;;;;;;5.70;3.60;;;;;;;24.76;45.99;101833.03;5043429;28;20059;-66
2022/07/30 07:30:33;;;;;;;5.30;3.47;;;;;;;24.83;45.84;101836.63;5062948;28;21643;-66
2022/07/30 07:33:01;;;;;;;5.43;3.50;;;;;;;24.81;45.69;101826.16;5046439;28;20123;-66
2022/07/30 07:35:27;;;;;;;4.28;3.35;;;;;;;24.80;46.14;101829.84;5063551;28;20047;-66
2022/07/30 07:37:52;;;;;;;4.78;3.22;;;;;;;24.81;46.10;101835.97;5045885;28;20390;-66
2022/07/30 07:40:21;;;;;;;5.03;3.22;;;;;;;24.83;46.18;101832.13;5049188;28;20254;-66
2022/07/30 07:42:47;;;;;;;5.05;3.60;;;;;;;24.83;46.17;101829.44;5044091;28;20032;-66
2022/07/30 07:45:16;;;;;;;5.53;3.10;;;;;;;24.83;46.30;101834.78;5077857;28;20045;-66
2022/07/30 07:47:49;;;;;;;6.75;3.90;;;;;;;24.84;46.22;101836.44;5042177;28;20032;-66
2022/07/30 07:50:40;;;;;;;5.13;3.60;;;;;;;24.90;46.36;101835.66;5062986;28;20029;-66
2022/07/30 07:53:11;;;;;;;4.38;3.10;;;;;;;24.89;46.13;101838.50;5043718;28;20516;-66
2022/07/30 07:55:38;;;;;;;5.53;3.38;;;;;;;24.86;46.49;101830.91;5045385;28;20444;-66
2022/07/30 07:58:03;;;;;;;4.13;3.22;;;;;;;24.86;46.37;101833.56;5044096;28;20036;-66
2022/07/30 08:00:29;;;;;;;5.10;3.33;;;;;;;24.86;46.29;101841.56;5048029;28;20052;-66
2022/07/30 08:02:55;;;;;;;7.80;3.78;;;;;;;24.81;46.96;101839.47;5058067;28;20474;-64
2022/07/30 08:05:20;;;;;;;7.75;4.13;;;;;;;24.71;47.91;101837.09;5040258;28;20048;-66
2022/07/30 08:08:06;;;;;;;10.07;3.83;;;;;;;24.72;47.89;101832.59;5039640;28;20512;-64
2022/07/30 08:10:38;;;;;;;7.45;4.28;;;;;;;24.68;48.21;101844.66;5067427;28;20049;-64
2022/07/30 08:13:22;;;;;;;13.20;4.25;;;;;;;24.67;48.29;101840.34;5061788;28;20091;-63
2022/07/30 08:16:23;;;;;;;7.97;4.00;;;;;;;24.66;48.34;101844.84;4973195;28;20070;-64
2022/07/30 08:18:51;;;;;;;7.50;3.88;;;;;;;24.60;48.21;101839.44;5048209;28;20401;-64
2022/07/30 08:21:24;;;;;;;6.65;3.85;;;;;;;24.65;48.12;101840.53;5062085;28;20037;-64
2022/07/30 08:23:49;;;;;;;6.68;3.33;;;;;;;24.60;48.06;101845.59;5048968;28;20048;-64
2022/07/30 08:26:15;;;;;;;5.65;3.75;;;;;;;24.66;47.79;101838.69;5045358;28;20037;-64
2022/07/30 08:28:42;;;;;;;5.35;3.95;;;;;;;24.64;47.96;101849.53;5060628;28;20123;-63
2022/07/30 08:31:08;;;;;;;7.93;3.50;;;;;;;24.62;47.81;101840.91;5042148;28;20083;-64
2022/07/30 08:33:34;;;;;;;6.72;3.80;;;;;;;24.64;47.89;101848.69;5044135;28;20143;-64
2022/07/30 08:36:01;;;;;;;6.50;3.58;;;;;;;24.61;47.77;101847.25;5047948;28;20507;-64
2022/07/30 08:38:26;;;;;;;5.50;3.90;;;;;;;24.73;47.64;101846.72;5066128;28;20049;-64
2022/07/30 08:40:56;;;;;;;6.30;3.80;;;;;;;24.65;47.51;101847.69;5041234;28;20086;-64
2022/07/30 08:43:23;;;;;;;4.50;3.50;;;;;;;24.65;48.00;101850.34;5046613;28;20052;-64
2022/07/30 08:45:50;;;;;;;7.40;3.63;;;;;;;24.60;47.84;101839.44;5045922;28;20042;-63
2022/07/30 08:48:36;;;;;;;4.40;3.40;;;;;;;24.67;47.71;101856.31;5039178;28;20032;-64
2022/07/30 08:51:03;;;;;;;7.30;3.97;;;;;;;24.67;47.64;101846.47;5044082;28;20043;-64
2022/07/30 08:54:00;;;;;;;5.53;4.07;;;;;;;24.64;47.53;101846.03;4971578;28;20050;-64
2022/07/30 08:56:27;;;;;;;6.38;3.78;;;;;;;24.65;47.68;101845.84;5039082;28;20146;-64
2022/07/30 08:58:53;;;;;;;6.28;3.75;;;;;;;24.65;47.45;101850.34;5052790;28;20040;-63
2022/07/30 09:01:21;;;;;;;6.70;4.03;;;;;;;24.72;47.33;101853.91;5043542;28;20035;-64
2022/07/30 09:03:46;;;;;;;8.77;3.85;;;;;;;24.68;47.46;101855.28;5062322;28;20119;-64
2022/07/30 09:06:12;;;;;;;8.50;3.75;;;;;;;24.68;47.62;101861.44;5042738;28;20481;-64
2022/07/30 09:08:38;;;;;;;7.75;3.65;;;;;;;24.70;47.56;101851.44;5067406;28;20767;-64
2022/07/30 09:11:03;;;;;;;5.47;3.47;;;;;;;24.67;47.48;101853.66;5064697;28;20474;-64
2022/07/30 09:13:36;;;;;;;8.45;3.70;;;;;;;24.71;47.12;101861.06;5043945;28;20059;-64
2022/07/30 09:16:04;;;;;;;5.78;3.63;;;;;;;24.70;47.12;101855.94;5046387;28;20607;-64
2022/07/30 09:18:37;;;;;;;3.83;3.40;;;;;;;24.73;47.21;101857.38;5046937;28;20064;-64
2022/07/30 09:21:27;;;;;;;6.45;3.67;;;;;;;24.73;47.09;101852.06;5048246;28;20029;-64
2022/07/30 09:24:10;;;;;;;5.72;3.67;;;;;;;24.72;47.14;101851.25;5047124;28;20033;-64
2022/07/30 09:26:54;;;;;;;9.43;4.13;;;;;;;24.67;47.13;101843.81;5065128;28;20537;-64
2022/07/30 09:29:37;;;;;;;6.43;3.28;;;;;;;24.70;47.03;101853.28;5060615;28;20044;-64
2022/07/30 09:32:21;;;;;;;7.47;4.00;;;;;;;24.73;47.23;101844.91;5064784;28;20148;-64
2022/07/30 09:35:13;;;;;;;5.80;3.42;;;;;;;24.75;47.06;101845.53;5056832;28;20056;-64
2022/07/30 09:38:06;;;;;;;4.45;3.65;;;;;;;24.73;47.01;101844.91;5058834;28;20060;-64
2022/07/30 09:40:52;;;;;;;5.03;3.10;;;;;;;24.73;47.01;101849.41;5068114;28;20833;-64
2022/07/30 09:43:47;;;;;;;8.63;3.83;;;;;;;24.75;46.97;101855.38;5040727;28;20535;-64
2022/07/30 09:46:43;;;;;;;5.40;3.90;;;;;;;24.77;46.81;101850.66;5048174;28;20106;-64
2022/07/30 09:49:17;;;;;;;5.68;3.65;;;;;;;24.75;46.88;101852.69;5039745;28;20525;-64
2022/07/30 09:51:43;;;;;;;6.53;4.05;;;;;;;24.69;46.98;101857.78;5062813;28;20426;-63
2022/07/30 09:54:09;;;;;;;6.00;3.40;;;;;;;24.76;46.72;101863.16;5047733;28;20089;-64
2022/07/30 09:56:35;;;;;;;6.80;4.10;;;;;;;24.76;46.73;101863.16;5046297;28;20627;-63
2022/07/30 09:59:01;;;;;;;5.55;3.83;;;;;;;24.70;46.78;101850.59;5047419;28;20137;-64
2022/07/30 10:01:27;;;;;;;5.25;3.45;;;;;;;24.76;46.72;101857.00;5047706;28;20393;-64
2022/07/30 10:04:26;;;;;;;5.50;3.50;;;;;;;24.75;46.68;101858.03;5033369;28;20045;-64
2022/07/30 10:07:01;;;;;;;6.07;3.53;;;;;;;24.74;46.54;101848.38;5037365;28;20100;-64
2022/07/30 10:09:44;;;;;;;6.40;3.50;;;;;;;24.74;46.52;101849.22;5065216;28;20051;-64
2022/07/30 10:12:13;;;;;;;7.03;3.40;;;;;;;24.70;46.42;101851.44;5050922;28;20037;-64
2022/07/30 10:14:45;;;;;;;7.53;3.63;;;;;;;24.76;46.48;101851.69;5047693;28;20028;-64
2022/07/30 10:17:13;;;;;;;5.22;3.38;;;;;;;24.74;46.29;101845.72;5064979;28;20043;-64
2022/07/30 10:19:41;;;;;;;6.97;3.42;;;;;;;24.75;46.38;101848.19;5045296;28;20040;-64
2022/07/30 10:22:30;;;;;;;6.75;3.80;;;;;;;24.76;46.30;101855.16;5030900;28;20041;-64
2022/07/30 10:25:22;;;;;;;5.10;3.80;;;;;;;24.70;46.42;101855.94;5041672;28;20041;-64
2022/07/30 10:28:28;;;;;;;4.70;3.20;;;;;;;24.81;46.27;101849.31;4964608;28;20461;-64
2022/07/30 10:30:56;;;;;;;7.80;3.38;;;;;;;24.77;46.33;101850.66;4963799;28;20133;-64
2022/07/30 10:33:26;;;;;;;5.75;3.47;;;;;;;24.76;46.22;101849.84;5011673;28;20060;-64
2022/07/30 10:35:51;;;;;;;4.13;3.30;;;;;;;24.79;46.22;101856.66;5065589;28;20516;-64
2022/07/30 10:38:20;;;;;;;8.02;3.70;;;;;;;24.75;46.20;101852.69;5067483;28;20041;-64
2022/07/30 10:40:57;;;;;;;5.38;3.55;;;;;;;24.76;46.29;101849.03;5063774;28;20036;-64
2022/07/30 10:44:05;;;;;;;5.53;3.70;;;;;;;24.70;46.48;101853.28;5062877;28;20040;-64
2022/07/30 10:46:50;;;;;;;5.30;3.65;;;;;;;24.76;46.04;101849.84;5058829;28;20032;-64
2022/07/30 10:49:17;;;;;;;4.38;3.40;;;;;;;24.73;45.93;101844.06;5065235;28;20109;-64
2022/07/30 10:51:48;;;;;;;5.28;3.40;;;;;;;24.74;46.30;101854.53;5063871;28;20036;-64
2022/07/30 10:54:38;;;;;;;7.75;3.67;;;;;;;24.83;46.09;101858.75;5065546;28;20055;-64
2022/07/30 10:57:15;;;;;;;8.25;3.97;;;;;;;24.73;46.31;101857.38;5059222;28;20051;-64
2022/07/30 10:59:59;;;;;;;5.15;3.72;;;;;;;24.77;46.02;101858.66;5064433;28;20079;-64
2022/07/30 11:02:27;;;;;;;6.53;3.42;;;;;;;24.75;46.06;101866.03;5059445;28;20386;-64
2022/07/30 11:05:17;;;;;;;5.75;3.78;;;;;;;24.76;45.92;101862.34;5043442;28;20032;-63
2022/07/30 11:07:44;;;;;;;4.55;3.70;;;;;;;24.80;45.91;101868.97;5065042;28;20036;-64
2022/07/30 11:10:36;;;;;;;6.15;3.55;;;;;;;24.75;46.03;101863.34;5046784;28;20063;-65
2022/07/30 11:13:03;;;;;;;6.90;3.83;;;;;;;24.81;46.10;101871.44;5059826;28;20514;-64
2022/07/30 11:15:55;;;;;;;6.47;3.83;;;;;;;24.74;46.02;101864.38;5060454;28;20076;-64
2022/07/30 11:18:23;;;;;;;5.85;3.60;;;;;;;24.79;46.03;101864.66;5056523;28;20087;-64
2022/07/30 11:21:20;;;;;;;4.72;3.58;;;;;;;24.75;46.15;101868.69;5059910;28;20039;-64
2022/07/30 11:23:45;;;;;;;3.85;3.35;;;;;;;24.75;46.09;101864.19;5041643;28;20048;-63
2022/07/30 11:26:38;;;;;;;5.80;3.20;;;;;;;24.81;46.12;101863.44;5061160;28;20045;-63
2022/07/30 11:29:05;;;;;;;6.22;3.83;;;;;;;24.92;45.65;101865.59;5062733;28;20028;-63
2022/07/30 11:31:35;;;;;;;7.03;3.65;;;;;;;24.85;45.74;101854.06;5063863;28;20040;-64
2022/07/30 11:34:19;;;;;;;6.60;3.47;;;;;;;24.77;45.97;101856.00;5063452;28;20118;-63
2022/07/30 11:37:03;;;;;;;4.85;3.45;;;;;;;24.76;45.96;101857.00;5063053;28;20036;-64
2022/07/30 11:39:53;;;;;;;4.93;3.30;;;;;;;24.83;45.89;101863.25;5064374;28;20470;-64
2022/07/30 11:42:26;;;;;;;4.53;3.60;;;;;;;24.84;45.90;101862.25;5062157;28;20186;-64
2022/07/30 11:45:12;;;;;;;6.75;3.53;;;;;;;24.79;46.03;101859.31;5063639;28;20040;-63
2022/07/30 11:47:38;;;;;;;6.32;4.00;;;;;;;24.86;45.77;101860.22;5054715;28;20094;-63
2022/07/30 11:50:05;;;;;;;7.32;3.70;;;;;;;24.87;45.74;101861.88;5062217;28;20048;-64